createdAt,value
2023-02-11T00:01:34.913Z,99329.91
2023-02-11T00:04:03.796Z,99335.03
2023-02-11T00:06:33.576Z,99332.03
2023-02-11T00:09:01.167Z,99334.78
2023-02-11T00:11:30.688Z,99335.72
2023-02-11T00:14:00.883Z,99326.78
2023-02-11T00:16:29.858Z,99327.94
2023-02-11T00:18:59.595Z,99320.06
2023-02-11T00:21:28.090Z,99305.59
2023-02-11T00:23:57.343Z,99313.34
2023-02-11T00:26:28.154Z,99302.19
2023-02-11T00:28:57.191Z,99299.06
2023-02-11T00:31:25.684Z,99306.41
2023-02-11T00:33:53.818Z,99305.59
2023-02-11T00:36:26.860Z,99307.38
2023-02-11T00:38:56.092Z,99307.44
2023-02-11T00:41:24.266Z,99296.81
2023-02-11T00:43:52.648Z,99290.47
2023-02-11T00:46:20.641Z,99287.88
2023-02-11T00:48:48.484Z,99277.50
2023-02-11T00:51:15.960Z,99275.72
2023-02-11T00:53:44.054Z,99264.50
2023-02-11T00:56:11.496Z,99272.84
2023-02-11T00:58:38.978Z,99265.06
2023-02-11T01:01:06.807Z,99266.88
2023-02-11T01:03:35.119Z,99257.09
2023-02-11T01:06:02.683Z,99254.31
2023-02-11T01:08:30.638Z,99242.03
2023-02-11T01:11:00.960Z,99242.75
2023-02-11T01:13:31.018Z,99238.31
2023-02-11T01:15:58.611Z,99215.50
2023-02-11T01:18:26.263Z,99215.22
2023-02-11T01:20:54.198Z,99217.09
2023-02-11T01:23:21.894Z,99213.78
2023-02-11T01:25:50.489Z,99210.88
2023-02-11T01:28:20.211Z,99208.41
2023-02-11T01:30:51.136Z,99212.66
2023-02-11T01:33:18.818Z,99214.06
2023-02-11T01:35:46.467Z,99215.72
2023-02-11T01:38:20.980Z,99222.50
2023-02-11T01:40:54.569Z,99213.50
2023-02-11T01:43:23.235Z,99225.53
2023-02-11T01:46:03.377Z,99225.97
2023-02-11T01:48:42.269Z,99234.56
2023-02-11T01:51:15.699Z,99220.00
2023-02-11T01:54:04.504Z,99215.59
2023-02-11T01:56:53.444Z,99199.97
2023-02-11T01:59:29.868Z,99198.72
2023-02-11T02:02:00.874Z,99181.16
2023-02-11T02:04:32.791Z,99188.59
2023-02-11T02:07:06.874Z,99166.31
2023-02-11T02:09:44.601Z,99166.88
2023-02-11T02:12:12.186Z,99166.03
2023-02-11T02:14:43.175Z,99167.56
2023-02-11T02:17:35.701Z,99148.75
2023-02-11T02:20:49.510Z,99151.22
2023-02-11T02:23:33.574Z,99155.25
2023-02-11T02:26:13.899Z,99155.78
2023-02-11T02:29:36.871Z,99161.06
2023-02-11T02:32:28.449Z,99159.53
2023-02-11T02:35:20.824Z,99161.47
2023-02-11T02:37:51.919Z,99164.50
2023-02-11T02:40:55.445Z,99163.25
2023-02-11T02:43:26.524Z,99163.13
2023-02-11T02:45:54.404Z,99154.78
2023-02-11T02:48:33.615Z,99149.94
2023-02-11T02:51:06.685Z,99139.41
2023-02-11T02:53:36.870Z,99136.09
2023-02-11T02:56:09.974Z,99134.16
2023-02-11T02:58:58.578Z,99127.91
2023-02-11T03:01:37.882Z,99127.78
2023-02-11T03:04:25.294Z,99138.00
2023-02-11T03:07:03.056Z,99130.13
2023-02-11T03:09:32.943Z,99128.19
2023-02-11T03:12:02.611Z,99134.53
2023-02-11T03:14:32.393Z,99132.28
2023-02-11T03:17:03.054Z,99149.03
2023-02-11T03:19:37.643Z,99155.81
2023-02-11T03:22:11.628Z,99150.72
2023-02-11T03:24:41.433Z,99156.66
2023-02-11T03:27:46.794Z,99150.44
2023-02-11T03:30:20.575Z,99150.72
2023-02-11T03:33:02.556Z,99150.16
2023-02-11T03:35:39.762Z,99154.31
2023-02-11T03:38:22.189Z,99142.66
2023-02-11T03:40:50.864Z,99130.31
2023-02-11T03:43:23.210Z,99111.38
2023-02-11T03:45:53.456Z,99095.97
2023-02-11T03:48:26.344Z,99098.63
2023-02-11T03:50:55.572Z,99099.44
2023-02-11T03:53:23.579Z,99089.16
2023-02-11T03:55:54.944Z,99082.25
2023-02-11T03:58:22.932Z,99086.69
2023-02-11T04:00:50.426Z,99097.75
2023-02-11T04:03:17.937Z,99098.28
2023-02-11T04:05:45.537Z,99096.88
2023-02-11T04:08:13.176Z,99092.56
2023-02-11T04:10:40.568Z,99089.38
2023-02-11T04:13:08.012Z,99083.16
2023-02-11T04:15:35.459Z,99082.28
2023-02-11T04:18:03.734Z,99074.22
2023-02-11T04:20:31.281Z,99076.34
2023-02-11T04:22:58.826Z,99078.50
2023-02-11T04:25:26.521Z,99089.44
2023-02-11T04:27:53.985Z,99087.91
2023-02-11T04:30:21.526Z,99086.97
2023-02-11T04:32:49.104Z,99096.13
2023-02-11T04:35:16.632Z,99096.94
2023-02-11T04:37:44.111Z,99088.38
2023-02-11T04:40:12.064Z,99095.44
2023-02-11T04:42:39.707Z,99100.72
2023-02-11T04:45:07.947Z,99106.50
2023-02-11T04:47:36.357Z,99109.97
2023-02-11T04:50:04.364Z,99109.81
2023-02-11T04:52:31.935Z,99107.75
2023-02-11T04:54:59.384Z,99114.66
2023-02-11T04:57:26.909Z,99129.91
2023-02-11T04:59:54.373Z,99119.81
2023-02-11T05:02:21.903Z,99119.00
2023-02-11T05:04:49.344Z,99119.38
2023-02-11T05:07:16.876Z,99116.06
2023-02-11T05:09:44.341Z,99114.94
2023-02-11T05:12:11.806Z,99113.31
2023-02-11T05:14:39.245Z,99102.50
2023-02-11T05:17:07.007Z,99109.75
2023-02-11T05:19:34.540Z,99116.25
2023-02-11T05:22:03.583Z,99111.28
2023-02-11T05:24:34.495Z,99121.69
2023-02-11T05:27:02.185Z,99111.31
2023-02-11T05:29:29.764Z,99112.47
2023-02-11T05:32:00.221Z,99108.91
2023-02-11T05:34:27.701Z,99117.25
2023-02-11T05:36:55.747Z,99110.59
2023-02-11T05:43:29.551Z,99088.06
2023-02-11T05:45:57.353Z,99088.72
2023-02-11T05:48:24.848Z,99090.53
2023-02-11T05:50:52.364Z,99087.06
2023-02-11T05:53:19.863Z,99082.09
2023-02-11T05:55:47.349Z,99087.50
2023-02-11T05:58:14.828Z,99084.28
2023-02-11T06:00:42.458Z,99078.34
2023-02-11T06:03:09.958Z,99078.66
2023-02-11T06:05:37.403Z,99072.84
2023-02-11T06:08:05.252Z,99079.06
2023-02-11T06:10:32.767Z,99056.78
2023-02-11T06:13:01.803Z,99079.34
2023-02-11T06:15:29.373Z,99075.47
2023-02-11T06:17:56.821Z,99078.97
2023-02-11T06:20:24.321Z,99064.44
2023-02-11T06:22:51.781Z,99076.34
2023-02-11T06:25:19.412Z,99072.75
2023-02-11T06:27:46.787Z,99070.91
2023-02-11T06:30:14.838Z,99064.84
2023-02-11T06:32:45.426Z,99079.78
2023-02-11T06:35:14.999Z,99060.13
2023-02-11T06:37:43.003Z,99070.63
2023-02-11T06:40:11.532Z,99065.09
2023-02-11T06:42:39.767Z,99060.38
2023-02-11T06:45:09.694Z,99058.56
2023-02-11T06:47:37.743Z,99064.38
2023-02-11T06:50:08.047Z,99058.81
2023-02-11T06:52:35.563Z,99058.25
2023-02-11T06:55:03.039Z,99048.25
2023-02-11T06:57:31.226Z,99053.34
2023-02-11T06:59:58.707Z,99052.41
2023-02-11T07:02:26.378Z,99044.22
2023-02-11T07:04:53.961Z,99045.03
2023-02-11T07:07:21.597Z,99040.47
2023-02-11T07:09:49.033Z,99049.84
2023-02-11T07:12:16.954Z,99045.97
2023-02-11T07:14:44.569Z,99049.81
2023-02-11T07:17:12.114Z,99059.38
2023-02-11T07:19:39.668Z,99053.00
2023-02-11T07:22:07.344Z,99052.81
2023-02-11T07:24:34.800Z,99064.63
2023-02-11T07:27:02.299Z,99060.50
2023-02-11T07:29:29.802Z,99058.53
2023-02-11T07:31:57.494Z,99053.94
2023-02-11T07:34:25.654Z,99060.06
2023-02-11T07:36:53.203Z,99066.44
2023-02-11T07:39:22.672Z,99074.13
2023-02-11T07:41:50.140Z,99071.50
2023-02-11T07:44:18.863Z,99074.59
2023-02-11T07:46:47.978Z,99072.47
2023-02-11T07:49:16.002Z,99057.06
2023-02-11T07:51:43.728Z,99060.75
2023-02-11T07:54:12.388Z,99058.28
2023-02-11T07:56:39.893Z,99058.13
2023-02-11T07:59:07.441Z,99066.72
2023-02-11T08:01:35.015Z,99055.72
2023-02-11T08:04:03.664Z,99054.19
2023-02-11T08:06:34.069Z,99062.06
2023-02-11T08:09:07.480Z,99059.16
2023-02-11T08:11:35.427Z,99059.06
2023-02-11T08:14:02.990Z,99054.72
2023-02-11T08:16:36.147Z,99046.34
2023-02-11T08:19:07.968Z,99048.03
2023-02-11T08:21:35.586Z,99050.94
2023-02-11T08:24:03.939Z,99047.78
2023-02-11T08:26:34.883Z,99055.31
2023-02-11T08:29:08.038Z,99048.47
2023-02-11T08:31:38.720Z,99057.25
2023-02-11T08:34:06.868Z,99046.09
2023-02-11T08:36:37.036Z,99058.97
2023-02-11T08:39:22.687Z,99050.94
2023-02-11T08:41:53.024Z,99049.50
2023-02-11T08:44:21.714Z,99039.78
2023-02-11T08:46:49.790Z,99036.81
2023-02-11T08:49:18.050Z,99042.88
2023-02-11T08:51:46.307Z,99035.81
2023-02-11T08:54:14.636Z,99033.78
2023-02-11T08:56:42.193Z,99034.25
2023-02-11T08:59:14.926Z,99020.38
2023-02-11T09:01:44.238Z,99029.13
2023-02-11T09:04:12.009Z,99034.66
2023-02-11T09:06:39.630Z,99050.69
2023-02-11T09:09:10.497Z,99053.81
2023-02-11T09:11:38.139Z,99059.41
2023-02-11T09:14:05.632Z,99046.84
2023-02-11T09:16:36.303Z,99057.16
2023-02-11T09:19:05.560Z,99064.84
2023-02-11T09:21:33.303Z,99069.81
2023-02-11T09:24:00.937Z,99070.84
2023-02-11T09:26:30.882Z,99061.13
2023-02-11T09:28:59.108Z,99055.97
2023-02-11T09:31:29.215Z,99061.78
2023-02-11T09:34:00.421Z,99073.97
2023-02-11T09:36:31.043Z,99069.00
2023-02-11T09:39:00.234Z,99059.56
2023-02-11T09:41:52.557Z,99078.53
2023-02-11T09:44:23.634Z,99097.53
2023-02-11T09:46:58.402Z,99087.34
2023-02-11T09:49:35.352Z,99067.69
2023-02-11T09:52:08.281Z,99080.97
2023-02-11T09:54:46.611Z,99073.38
2023-02-11T09:57:27.710Z,99071.31
2023-02-11T09:59:57.246Z,99067.63
2023-02-11T10:02:45.170Z,99071.78
2023-02-11T10:05:30.608Z,99064.88
2023-02-11T10:08:16.769Z,99075.06
2023-02-11T10:10:53.524Z,99077.03
2023-02-11T10:13:21.223Z,99075.81
2023-02-11T10:16:09.771Z,99069.50
2023-02-11T10:18:44.263Z,99053.81
2023-02-11T10:21:15.026Z,99061.75
2023-02-11T10:23:47.151Z,99069.41
2023-02-11T10:26:19.461Z,99058.84
2023-02-11T10:28:51.079Z,99061.03
2023-02-11T10:31:28.891Z,99060.34
2023-02-11T10:34:09.511Z,99065.31
2023-02-11T10:36:40.462Z,99054.47
2023-02-11T10:39:26.367Z,99057.16
2023-02-11T10:42:02.783Z,99051.91
2023-02-11T10:44:46.056Z,99045.00
2023-02-11T10:47:21.299Z,99065.44
2023-02-11T10:49:49.228Z,99081.97
2023-02-11T10:52:24.454Z,99076.34
2023-02-11T10:55:03.879Z,99050.56
2023-02-11T10:57:36.004Z,99040.59
2023-02-11T11:00:18.802Z,99025.94
2023-02-11T11:02:54.384Z,99037.22
2023-02-11T11:05:30.579Z,99037.38
2023-02-11T11:08:05.482Z,99037.75
2023-02-11T11:10:43.436Z,99033.09
2023-02-11T11:13:25.083Z,99041.56
2023-02-11T11:16:12.411Z,99033.47
2023-02-11T11:18:45.156Z,99043.16
2023-02-11T11:21:22.837Z,99045.19
2023-02-11T11:24:02.536Z,99038.38
2023-02-11T11:26:44.829Z,99046.16
2023-02-11T11:29:22.323Z,99032.78
2023-02-11T11:32:04.422Z,99043.38
2023-02-11T11:34:33.522Z,99037.78
2023-02-11T11:37:10.461Z,99042.38
2023-02-11T11:39:39.356Z,99026.06
2023-02-11T11:42:24.242Z,99021.78
2023-02-11T11:45:20.284Z,99026.75
2023-02-11T11:47:53.984Z,99034.47
2023-02-11T11:50:40.149Z,99031.34
2023-02-11T11:53:10.803Z,99024.41
2023-02-11T11:55:46.585Z,99025.22
2023-02-11T11:58:22.268Z,99034.94
2023-02-11T12:01:11.604Z,99034.13
2023-02-11T12:04:06.035Z,99041.25
2023-02-11T12:06:41.577Z,99039.63
2023-02-11T12:09:37.674Z,99040.63
2023-02-11T12:12:07.799Z,99049.56
2023-02-11T12:14:48.466Z,99059.81
2023-02-11T12:17:46.008Z,99062.94
2023-02-11T12:20:31.971Z,99055.34
2023-02-11T12:23:18.099Z,99070.38
2023-02-11T12:26:02.506Z,99060.44
2023-02-11T12:28:42.725Z,99068.34
2023-02-11T12:31:39.467Z,99074.13
2023-02-11T12:34:16.044Z,99070.03
2023-02-11T12:37:03.019Z,99067.53
2023-02-11T12:39:46.156Z,99067.69
2023-02-11T12:42:54.626Z,99055.81
2023-02-11T12:45:46.563Z,99049.66
2023-02-11T12:48:26.277Z,99051.63
2023-02-11T12:51:17.303Z,99046.50
2023-02-11T12:54:05.864Z,99041.72
2023-02-11T12:56:34.229Z,99032.56
2023-02-11T12:59:05.403Z,99045.09
2023-02-11T13:01:38.475Z,99033.84
2023-02-11T13:04:17.261Z,99028.06
2023-02-11T13:07:06.426Z,99026.44
2023-02-11T13:09:44.212Z,99034.03
2023-02-11T13:12:33.028Z,99030.22
2023-02-11T13:15:07.092Z,99033.03
2023-02-11T13:17:48.390Z,99035.00
2023-02-11T13:20:30.553Z,99035.78
2023-02-11T13:23:31.561Z,99027.84
2023-02-11T13:26:20.820Z,99028.84
2023-02-11T13:28:52.083Z,99034.94
2023-02-11T13:31:20.726Z,99031.31
2023-02-11T13:33:49.960Z,99033.44
2023-02-11T13:36:23.884Z,99041.72
2023-02-11T13:38:58.476Z,99030.03
2023-02-11T13:41:33.701Z,99034.63
2023-02-11T13:44:09.961Z,99032.63
2023-02-11T13:47:00.183Z,99027.00
2023-02-11T13:49:41.523Z,99033.44
2023-02-11T13:52:22.490Z,99023.09
2023-02-11T13:54:52.939Z,99035.13
2023-02-11T13:57:20.444Z,99032.34
2023-02-11T13:59:59.880Z,99028.53
2023-02-11T14:02:54.757Z,99027.03
2023-02-11T14:05:51.325Z,99019.81
2023-02-11T14:09:01.958Z,99020.97
2023-02-11T14:11:48.147Z,99023.09
2023-02-11T14:14:15.681Z,99016.34
2023-02-11T14:17:07.243Z,99024.44
2023-02-11T14:19:37.779Z,99016.31
2023-02-11T14:22:08.158Z,99020.28
2023-02-11T14:24:35.628Z,99022.25
2023-02-11T14:27:16.341Z,99037.09
2023-02-11T14:30:09.345Z,99024.75
2023-02-11T14:33:09.921Z,99031.03
2023-02-11T14:35:54.257Z,99029.53
2023-02-11T14:38:36.518Z,99036.25
2023-02-11T14:41:10.868Z,99041.53
2023-02-11T14:43:49.460Z,99038.91
2023-02-11T14:46:18.945Z,99045.00
2023-02-11T14:48:49.470Z,99051.44
2023-02-11T14:51:23.625Z,99046.47
2023-02-11T14:53:54.169Z,99041.19
2023-02-11T14:56:34.620Z,99053.09
2023-02-11T14:59:02.882Z,99059.03
2023-02-11T15:01:40.289Z,99061.66
2023-02-11T15:04:27.452Z,99054.56
2023-02-11T15:06:57.635Z,99049.28
2023-02-11T15:09:37.451Z,99046.50
2023-02-11T15:12:05.492Z,99033.44
2023-02-11T15:14:36.783Z,99037.75
2023-02-11T15:17:08.199Z,99052.47
2023-02-11T15:19:41.447Z,99044.53
2023-02-11T15:22:20.711Z,99038.28
2023-02-11T15:25:08.543Z,99047.28
2023-02-11T15:27:48.432Z,99040.53
2023-02-11T15:30:21.737Z,99032.25
2023-02-11T15:33:00.812Z,99044.63
2023-02-11T15:35:32.681Z,99035.19
2023-02-11T15:38:00.299Z,99041.00
2023-02-11T15:40:32.551Z,99056.00
2023-02-11T15:43:05.078Z,99064.88
2023-02-11T15:45:32.542Z,99066.94
2023-02-11T15:48:35.489Z,99060.28
2023-02-11T15:51:23.209Z,99052.38
2023-02-11T15:53:57.188Z,99051.41
2023-02-11T15:56:49.292Z,99047.72
2023-02-11T15:59:24.064Z,99048.75
2023-02-11T16:01:52.649Z,99043.78
2023-02-11T16:04:23.770Z,99047.72
2023-02-11T16:06:52.512Z,99047.03
2023-02-11T16:09:19.893Z,99056.13
2023-02-11T16:11:47.419Z,99052.00
2023-02-11T16:14:28.103Z,99050.84
2023-02-11T16:17:22.462Z,99050.69
2023-02-11T16:19:51.062Z,99049.84
2023-02-11T16:22:31.089Z,99066.50
2023-02-11T16:24:59.908Z,99067.94
2023-02-11T16:27:38.227Z,99069.31
2023-02-11T16:30:08.351Z,99079.88
2023-02-11T16:32:35.872Z,99076.25
2023-02-11T16:35:11.070Z,99076.56
2023-02-11T16:37:38.591Z,99083.78
2023-02-11T16:40:06.864Z,99092.69
2023-02-11T16:42:34.363Z,99095.13
2023-02-11T16:45:02.221Z,99099.22
2023-02-11T16:47:31.361Z,99089.66
2023-02-11T16:49:59.329Z,99101.06
2023-02-11T16:52:26.893Z,99106.66
2023-02-11T16:54:54.635Z,99096.47
2023-02-11T16:57:24.435Z,99093.31
2023-02-11T16:59:52.486Z,99108.84
2023-02-11T17:02:27.427Z,99116.75
2023-02-11T17:04:56.632Z,99104.50
2023-02-11T17:07:24.151Z,99115.88
2023-02-11T17:09:52.334Z,99112.91
2023-02-11T17:12:20.711Z,99120.16
2023-02-11T17:14:48.258Z,99123.16
2023-02-11T17:17:16.036Z,99109.66
2023-02-11T17:19:43.904Z,99120.22
2023-02-11T17:22:12.208Z,99105.53
2023-02-11T17:24:40.068Z,99111.94
2023-02-11T17:27:07.537Z,99113.59
2023-02-11T17:29:35.010Z,99117.19
2023-02-11T17:32:02.627Z,99121.00
2023-02-11T17:34:30.132Z,99125.59
2023-02-11T17:36:58.936Z,99125.50
2023-02-11T17:39:27.730Z,99136.06
2023-02-11T17:41:55.226Z,99128.00
2023-02-11T17:44:22.783Z,99140.50
2023-02-11T17:46:50.257Z,99142.00
2023-02-11T17:49:17.836Z,99145.25
2023-02-11T17:51:45.408Z,99141.94
2023-02-11T17:54:18.429Z,99131.88
2023-02-11T17:56:49.268Z,99142.13
2023-02-11T17:59:17.882Z,99148.41
2023-02-11T18:01:45.438Z,99153.00
2023-02-11T18:04:16.398Z,99161.13
2023-02-11T18:06:44.782Z,99170.72
2023-02-11T18:09:13.037Z,99164.94
2023-02-11T18:11:41.156Z,99182.63
2023-02-11T18:14:10.487Z,99183.31
2023-02-11T18:16:39.873Z,99179.69
2023-02-11T18:19:07.801Z,99177.88
2023-02-11T18:21:35.367Z,99188.13
2023-02-11T18:24:06.679Z,99183.00
2023-02-11T18:26:35.217Z,99189.25
2023-02-11T18:29:05.103Z,99188.94
2023-02-11T18:31:35.400Z,99192.56
2023-02-11T18:34:06.042Z,99200.50
2023-02-11T18:36:34.117Z,99197.84
2023-02-11T18:39:01.781Z,99205.97
2023-02-11T18:41:29.903Z,99206.66
2023-02-11T18:43:58.882Z,99205.66
2023-02-11T18:46:26.559Z,99202.38
2023-02-11T18:48:56.061Z,99213.13
2023-02-11T18:51:24.641Z,99213.81
2023-02-11T18:53:52.992Z,99216.16
2023-02-11T18:56:23.253Z,99227.69
2023-02-11T18:58:52.237Z,99226.41
2023-02-11T19:01:24.475Z,99230.69
2023-02-11T19:03:52.992Z,99233.94
2023-02-11T19:06:26.527Z,99232.97
2023-02-11T19:08:59.193Z,99237.94
2023-02-11T19:11:47.129Z,99250.16
2023-02-11T19:14:31.695Z,99260.44
2023-02-11T19:17:01.777Z,99260.19
2023-02-11T19:19:31.457Z,99261.56
2023-02-11T19:22:00.391Z,99260.25
2023-02-11T19:24:29.858Z,99271.34
2023-02-11T19:27:00.823Z,99265.53
2023-02-11T19:29:29.872Z,99290.59
2023-02-11T19:31:57.455Z,99282.38
2023-02-11T19:34:25.353Z,99288.00
2023-02-11T19:36:54.431Z,99289.16
2023-02-11T19:39:24.026Z,99290.50
2023-02-11T19:41:52.227Z,99293.66
2023-02-11T19:44:19.720Z,99297.13
2023-02-11T19:46:48.592Z,99295.63
2023-02-11T19:49:23.001Z,99290.19
2023-02-11T19:51:51.680Z,99303.03
2023-02-11T19:54:20.388Z,99303.50
2023-02-11T19:56:48.929Z,99301.81
2023-02-11T19:59:16.900Z,99312.56
2023-02-11T20:01:47.779Z,99314.06
2023-02-11T20:04:17.445Z,99321.50
2023-02-11T20:06:45.752Z,99328.59
2023-02-11T20:09:14.942Z,99335.22
2023-02-11T20:11:42.766Z,99327.78
2023-02-11T20:14:14.763Z,99334.41
2023-02-11T20:16:49.312Z,99333.06
2023-02-11T20:19:22.082Z,99335.00
2023-02-11T20:21:52.956Z,99333.38
2023-02-11T20:24:20.622Z,99327.69
2023-02-11T20:26:48.775Z,99327.41
2023-02-11T20:29:18.580Z,99329.09
2023-02-11T20:31:47.234Z,99335.00
2023-02-11T20:34:17.114Z,99338.78
2023-02-11T20:36:51.969Z,99339.34
2023-02-11T20:39:22.401Z,99335.72
2023-02-11T20:41:51.785Z,99330.88
2023-02-11T20:44:21.826Z,99326.78
2023-02-11T20:46:49.764Z,99317.97
2023-02-11T20:49:20.495Z,99321.91
2023-02-11T20:51:48.447Z,99312.56
2023-02-11T20:54:18.718Z,99318.66
2023-02-11T20:56:48.205Z,99323.94
2023-02-11T20:59:16.972Z,99327.41
2023-02-11T21:01:48.758Z,99323.63
2023-02-11T21:04:20.347Z,99322.34
2023-02-11T21:06:50.548Z,99319.56
2023-02-11T21:09:20.888Z,99320.75
2023-02-11T21:11:51.752Z,99325.34
2023-02-11T21:14:20.870Z,99312.47
2023-02-11T21:16:49.208Z,99325.66
2023-02-11T21:19:17.145Z,99329.28
2023-02-11T21:21:45.163Z,99331.97
2023-02-11T21:24:13.032Z,99325.88
2023-02-11T21:26:40.651Z,99323.22
2023-02-11T21:29:09.308Z,99332.16
2023-02-11T21:31:38.268Z,99334.63
2023-02-11T21:34:06.735Z,99328.53
2023-02-11T21:36:34.253Z,99342.25
2023-02-11T21:39:04.056Z,99344.56
2023-02-11T21:41:31.732Z,99352.28
2023-02-11T21:43:59.147Z,99358.25
2023-02-11T21:46:27.549Z,99359.78
2023-02-11T21:48:55.035Z,99367.38
2023-02-11T21:51:24.952Z,99366.56
2023-02-11T21:54:03.774Z,99369.66
2023-02-11T21:56:33.465Z,99368.53
2023-02-11T21:59:01.100Z,99368.13
2023-02-11T22:01:31.427Z,99370.78
2023-02-11T22:03:59.941Z,99381.03
2023-02-11T22:06:31.182Z,99378.03
2023-02-11T22:09:01.576Z,99384.38
2023-02-11T22:11:29.152Z,99389.66
2023-02-11T22:13:57.972Z,99399.53
2023-02-11T22:16:26.991Z,99402.63
2023-02-11T22:18:58.623Z,99400.34
2023-02-11T22:21:26.881Z,99401.81
2023-02-11T22:23:55.353Z,99414.72
2023-02-11T22:26:25.581Z,99404.50
2023-02-11T22:28:53.943Z,99402.16
2023-02-11T22:31:24.317Z,99413.41
2023-02-11T22:33:52.532Z,99415.75
2023-02-11T22:36:22.552Z,99420.34
2023-02-11T22:38:50.570Z,99408.97
2023-02-11T22:41:19.442Z,99417.41
2023-02-11T22:43:47.318Z,99414.25
2023-02-11T22:46:16.929Z,99412.72
2023-02-11T22:48:45.242Z,99415.16
2023-02-11T22:51:17.550Z,99423.59
2023-02-11T22:53:48.663Z,99428.28
2023-02-11T22:56:16.131Z,99431.44
2023-02-11T22:58:43.637Z,99444.53
2023-02-11T23:01:12.860Z,99445.66
2023-02-11T23:03:40.905Z,99448.97
2023-02-11T23:06:09.146Z,99442.88
2023-02-11T23:08:38.832Z,99455.38
2023-02-11T23:11:09.776Z,99456.22
2023-02-11T23:13:39.306Z,99461.66
2023-02-11T23:16:09.743Z,99465.44
2023-02-11T23:18:38.915Z,99471.22
2023-02-11T23:21:11.397Z,99470.78
2023-02-11T23:23:40.023Z,99467.47
2023-02-11T23:26:12.155Z,99477.88
2023-02-11T23:28:40.724Z,99484.38
2023-02-11T23:31:29.856Z,99471.97
2023-02-11T23:33:57.838Z,99467.53
2023-02-11T23:36:25.448Z,99481.72
2023-02-11T23:38:52.982Z,99471.16
2023-02-11T23:41:21.059Z,99481.59
2023-02-11T23:43:53.113Z,99477.66
2023-02-11T23:46:22.199Z,99475.00
2023-02-11T23:48:51.424Z,99473.06
2023-02-11T23:51:19.882Z,99473.19
2023-02-11T23:53:49.307Z,99481.44
2023-02-11T23:56:20.111Z,99479.59
2023-02-11T23:58:49.407Z,99477.97
